SLCO/CIJ METAR and TAF weather

Enter ICAO airport designator
Station Type Date Time Source
SLCO METAR 2019/12/15 22:00 UTC NOAA

SLCO 152200Z 00000KT 5000 -TSRA SCT020 FEW023CB BKN200 25/24 Q1009


Station Type Date Time Source
SLCO Decoded METAR 2019/12/15 22:00 UTC NOAA

Cobija, Bolivia (SLCO) 11-02S 068-47W 260M
Dec 15, 2019 - 05:00 PM EST / 2019.12.15 2200 UTC
Wind: Calm:0
Visibility: 3 mile(s):0
Sky conditions: mostly cloudy
Weather: light rain with thunder; Cumulonimbus clouds observed
Temperature: 77 F (25 C)
Dew Point: 75 F (24 C)
Relative Humidity: 94%
Pressure (altimeter): 29.80 in. Hg (1009 hPa)
ob: SLCO 152200Z 00000KT 5000 -TSRA SCT020 FEW023CB BKN200 25/24 Q1009
cycle: 22

Station Type Date Time Source
SLCO TAF 2019/12/16 06:18 UTC NOAA

TAF TAF SLCO 160400Z 1606/1706 00000KT 9999 SCT017 SCT080 TX34/1620Z TN23 /1610Z
BECMG 1614/1617 33008KT BKN080
TEMPO 1618/1621 7000 SHRA FEW023CB

Example: see airport list